Time;durP1;ratioP1;P1;durP2;ratioP2;P2;SDS_P1;SDS_P2;PMS_P1;PMS_P2;Temp;Humidity;BMP_temperature;BMP_pressure;BME280_temperature;BME280_humidity;BME280_pressure;Samples;Min_cycle;Max_cycle;Signal;HPM_P1;HPM_P2
2022/05/20 00:00:46;;;;;;;11.18;9.73;;;12.10;99.90;;;;;;4987015;28;20573;-86
2022/05/20 00:03:14;;;;;;;19.52;9.68;;;12.00;99.90;;;;;;4985336;28;20112;-86
2022/05/20 00:05:41;;;;;;;10.27;9.27;;;12.00;99.90;;;;;;5004303;28;20054;-86
2022/05/20 00:08:08;;;;;;;9.93;8.93;;;11.90;99.90;;;;;;4998772;28;20050;-86
2022/05/20 00:10:36;;;;;;;16.75;10.50;;;11.90;99.90;;;;;;5011795;28;20053;-86
2022/05/20 00:13:04;;;;;;;12.07;9.38;;;11.90;99.90;;;;;;4976420;28;20068;-87
2022/05/20 00:15:31;;;;;;;11.18;9.98;;;11.80;99.90;;;;;;5002310;28;20101;-86
2022/05/20 00:17:59;;;;;;;13.40;9.10;;;11.80;99.90;;;;;;5002708;28;20094;-86
2022/05/20 00:20:28;;;;;;;12.52;9.00;;;11.70;99.90;;;;;;5004480;28;21591;-86
2022/05/20 00:22:56;;;;;;;10.50;9.23;;;11.70;99.90;;;;;;4998694;28;20063;-86
2022/05/20 00:28:10;;;;;;;10.82;9.32;;;11.70;99.90;;;;;;5000509;28;20045;-86
2022/05/20 00:30:37;;;;;;;13.90;10.23;;;11.60;99.90;;;;;;4983445;28;20053;-86
2022/05/20 00:33:06;;;;;;;11.68;9.55;;;11.60;99.90;;;;;;4986384;28;20606;-86
2022/05/20 00:35:33;;;;;;;14.07;9.82;;;11.60;99.90;;;;;;4988698;28;20117;-86
2022/05/20 00:37:59;;;;;;;13.02;10.35;;;11.60;99.90;;;;;;4999726;28;20149;-86
2022/05/20 00:40:28;;;;;;;13.10;9.27;;;11.60;99.90;;;;;;5004293;28;20050;-86
2022/05/20 00:43:12;;;;;;;11.18;10.05;;;11.60;99.90;;;;;;5005290;28;20059;-87
2022/05/20 00:45:42;;;;;;;12.52;11.13;;;11.60;99.90;;;;;;4975237;28;20065;-87
2022/05/20 00:48:09;;;;;;;13.00;10.15;;;11.60;99.90;;;;;;4985956;28;20443;-87
2022/05/20 00:50:39;;;;;;;18.60;11.63;;;11.60;99.90;;;;;;5002733;28;20393;-87
2022/05/20 00:53:07;;;;;;;12.88;11.27;;;11.60;99.90;;;;;;5003538;28;21608;-86
2022/05/20 00:55:35;;;;;;;11.75;10.02;;;11.60;99.90;;;;;;5001370;28;20115;-86
2022/05/20 00:58:08;;;;;;;20.70;11.07;;;11.60;99.90;;;;;;5004408;28;20069;-87
2022/05/20 01:00:48;;;;;;;12.75;11.35;;;11.60;99.90;;;;;;5093279;23;20046;31
2022/05/20 01:03:18;;;;;;;13.05;11.10;;;11.70;99.90;;;;;;4892012;29;20373;-66
2022/05/20 01:05:48;;;;;;;11.50;10.40;;;11.70;99.90;;;;;;4904033;29;20079;-65
2022/05/20 01:08:28;;;;;;;11.30;10.02;;;11.60;99.90;;;;;;4923258;23;20056;-85
2022/05/20 01:10:56;;;;;;;17.30;10.75;;;11.70;99.90;;;;;;4927961;28;20052;-85
2022/05/20 01:13:29;;;;;;;11.05;9.65;;;11.60;99.90;;;;;;4907244;29;20151;-85
2022/05/20 01:16:02;;;;;;;13.02;10.10;;;11.70;99.90;;;;;;4927564;29;20044;-85
2022/05/20 01:18:35;;;;;;;12.85;11.50;;;11.70;99.90;;;;;;4926358;29;20124;-85
2022/05/20 01:21:03;;;;;;;16.02;10.00;;;11.70;99.90;;;;;;4928108;29;20118;-85
2022/05/20 01:23:33;;;;;;;12.43;10.35;;;11.70;99.90;;;;;;4929069;29;20119;-85
2022/05/20 01:26:00;;;;;;;13.00;9.60;;;11.70;99.90;;;;;;4925316;29;20572;-85
2022/05/20 01:28:30;;;;;;;12.43;8.90;;;11.80;99.90;;;;;;4923028;29;20063;-85
2022/05/20 01:31:02;;;;;;;10.75;8.68;;;11.80;99.90;;;;;;4905878;29;20103;-85
2022/05/20 01:33:35;;;;;;;9.38;8.18;;;11.80;99.90;;;;;;4920055;29;20438;-85
2022/05/20 01:36:05;;;;;;;10.55;9.55;;;11.70;99.90;;;;;;4923978;29;20144;-85
2022/05/20 01:38:32;;;;;;;;;;;11.70;99.90;;;;;;4922363;29;20051;-85
2022/05/20 01:41:05;;;;;;;12.18;9.25;;;11.70;99.90;;;;;;4930427;29;20009;-85
2022/05/20 01:43:48;;;;;;;12.00;10.75;;;11.70;99.90;;;;;;4921366;29;20062;-85
2022/05/20 01:46:32;;;;;;;11.32;8.27;;;11.60;99.90;;;;;;4923051;29;20516;-85
2022/05/20 01:49:35;;;;;;;9.13;7.93;;;11.60;99.90;;;;;;4918236;29;20505;-85
2022/05/20 01:52:05;;;;;;;9.90;8.90;;;11.60;99.90;;;;;;4832358;29;20037;-85
2022/05/20 01:54:39;;;;;;;9.80;8.80;;;11.50;99.90;;;;;;4907213;29;20048;-85
2022/05/20 01:57:21;;;;;;;11.35;9.90;;;11.50;99.90;;;;;;4925843;29;20040;-85
2022/05/20 01:59:58;;;;;;;12.27;8.98;;;11.50;99.90;;;;;;4917635;29;20103;-85
2022/05/20 02:02:39;;;;;;;14.43;9.48;;;11.50;99.90;;;;;;4925007;29;20059;-85
2022/05/20 02:05:15;;;;;;;15.45;10.07;;;11.40;99.90;;;;;;4921379;29;20087;-85
2022/05/20 02:07:49;;;;;;;13.15;9.80;;;11.50;99.90;;;;;;4926394;29;20123;-85
2022/05/20 02:10:29;;;;;;;13.05;10.63;;;11.50;99.90;;;;;;4947036;28;20055;-84
2022/05/20 02:13:00;;;;;;;12.20;10.52;;;11.40;99.90;;;;;;4951230;28;20043;-85
2022/05/20 02:15:37;;;;;;;11.57;10.57;;;11.50;99.90;;;;;;4946553;28;20055;-84
2022/05/20 02:18:07;;;;;;;13.77;12.30;;;11.40;99.90;;;;;;4949886;28;20146;-84
2022/05/20 02:20:45;;;;;;;12.65;11.48;;;11.40;99.90;;;;;;4946233;28;20055;-85
2022/05/20 02:23:20;;;;;;;15.23;11.98;;;11.40;99.90;;;;;;4947553;28;20135;-85
2022/05/20 02:25:53;;;;;;;16.08;11.75;;;11.40;99.90;;;;;;4939876;28;20047;-85
2022/05/20 02:28:38;;;;;;;13.32;11.85;;;11.40;99.90;;;;;;4948692;28;20464;-85
2022/05/20 02:31:10;;;;;;;11.85;10.60;;;11.40;99.90;;;;;;4947812;28;20193;-85
2022/05/20 02:33:38;;;;;;;17.65;11.63;;;11.30;99.90;;;;;;4916653;29;20050;-85
2022/05/20 02:36:28;;;;;;;15.73;12.10;;;11.30;99.90;;;;;;4943912;28;20067;-85
2022/05/20 02:38:55;;;;;;;14.07;12.73;;;11.40;99.90;;;;;;4927659;29;20085;-85
2022/05/20 02:41:22;;;;;;;14.73;13.00;;;11.40;99.90;;;;;;4944169;28;20097;-86
2022/05/20 02:43:48;;;;;;;13.88;11.88;;;11.40;99.90;;;;;;4946789;28;20099;-86
2022/05/20 02:46:15;;;;;;;16.42;13.73;;;11.40;99.90;;;;;;4925475;29;20055;-86
2022/05/20 02:48:42;;;;;;;18.08;14.40;;;11.30;99.90;;;;;;4941700;28;20055;-85
2022/05/20 02:51:10;;;;;;;17.95;15.15;;;11.30;99.90;;;;;;4943141;28;20078;-86
2022/05/20 02:53:37;;;;;;;16.88;14.23;;;11.30;99.90;;;;;;4912654;29;20607;-86
2022/05/20 02:56:04;;;;;;;16.55;14.82;;;11.30;99.90;;;;;;4947344;28;20586;-86
2022/05/20 03:04:11;;;;;;;19.02;12.82;;;11.30;99.90;;;;;;4948334;28;20071;-86
2022/05/20 03:06:41;;;;;;;18.95;12.82;;;11.30;99.90;;;;;;4949705;28;20051;-86
2022/05/20 03:09:10;;;;;;;16.50;13.15;;;11.30;99.90;;;;;;4939722;28;20048;-86
2022/05/20 03:11:41;;;;;;;17.85;12.57;;;11.30;99.90;;;;;;4949477;28;20043;-85
2022/05/20 03:14:09;;;;;;;;;;;11.30;99.90;;;;;;4953674;28;20065;-86
2022/05/20 03:16:37;;;;;;;14.02;11.63;;;11.30;99.90;;;;;;4945013;28;19923;-85
2022/05/20 03:19:05;;;;;;;14.05;12.70;;;11.30;99.90;;;;;;4938937;28;20051;-85
2022/05/20 03:21:34;;;;;;;17.55;12.35;;;11.30;99.90;;;;;;4941666;28;20519;-85
2022/05/20 03:24:01;;;;;;;14.77;13.25;;;11.30;99.90;;;;;;4921336;29;20055;-86
2022/05/20 03:26:29;;;;;;;14.65;13.35;;;11.40;99.90;;;;;;4944712;28;20055;-85
2022/05/20 03:28:59;;;;;;;14.70;13.20;;;11.40;99.90;;;;;;4930078;29;20779;-86
2022/05/20 03:31:27;;;;;;;24.73;15.77;;;11.40;99.90;;;;;;4943707;28;20173;-86
2022/05/20 03:33:54;;;;;;;19.40;13.07;;;11.40;99.90;;;;;;4926334;29;20055;-86
2022/05/20 03:36:21;;;;;;;17.45;13.07;;;11.40;99.90;;;;;;4947476;28;20055;-86
2022/05/20 03:38:48;;;;;;;15.35;13.02;;;11.40;99.90;;;;;;4943551;28;20051;-86
2022/05/20 03:41:15;;;;;;;14.45;11.40;;;11.40;99.90;;;;;;4925735;28;20178;-86
2022/05/20 03:43:42;;;;;;;18.05;14.88;;;11.50;99.90;;;;;;4924186;29;20106;-86
2022/05/20 03:46:09;;;;;;;15.55;13.38;;;11.50;99.90;;;;;;4929546;29;20048;-86
2022/05/20 03:48:38;;;;;;;16.63;14.00;;;11.50;99.90;;;;;;4947114;28;20043;-86
2022/05/20 03:51:11;;;;;;;13.02;11.65;;;11.50;99.90;;;;;;4947135;28;20289;-86
2022/05/20 03:53:38;;;;;;;19.52;15.38;;;11.50;99.90;;;;;;4926674;29;20516;-86
2022/05/20 03:56:06;;;;;;;16.55;15.02;;;11.50;99.90;;;;;;4938994;28;20055;-86
2022/05/20 03:58:34;;;;;;;20.40;15.63;;;11.50;99.90;;;;;;4931239;29;20063;-86
2022/05/20 04:03:47;;;;;;;18.92;14.88;;;11.60;99.90;;;;;;4943263;28;20086;-86
2022/05/20 04:06:14;;;;;;;17.65;15.70;;;11.50;99.90;;;;;;4923494;29;20061;-86
2022/05/20 04:08:41;;;;;;;16.13;13.82;;;11.40;99.90;;;;;;4948186;28;20055;-86
2022/05/20 04:11:11;;;;;;;22.92;16.33;;;11.30;99.90;;;;;;4938220;28;20382;-86
2022/05/20 04:13:39;;;;;;;23.55;15.40;;;11.30;99.90;;;;;;4914746;28;20039;-85
2022/05/20 04:16:08;;;;;;;18.08;15.40;;;11.30;99.90;;;;;;4924389;29;20146;-85
2022/05/20 04:18:37;;;;;;;17.23;15.35;;;11.20;99.90;;;;;;4928142;29;20102;-85
2022/05/20 04:21:05;;;;;;;18.90;14.80;;;11.20;99.90;;;;;;4946765;28;20039;-85
2022/05/20 04:23:33;;;;;;;16.38;14.75;;;11.20;99.90;;;;;;4907584;29;20039;-85
2022/05/20 04:26:00;;;;;;;18.80;15.15;;;11.20;99.90;;;;;;4947353;28;20054;-86
2022/05/20 04:28:27;;;;;;;16.38;13.85;;;11.30;99.90;;;;;;4934790;28;20055;-85
2022/05/20 04:30:57;;;;;;;16.95;15.30;;;11.30;99.90;;;;;;4908072;28;20122;-86
2022/05/20 04:33:25;;;;;;;;;;;11.20;99.90;;;;;;4944316;28;20599;-86
2022/05/20 04:35:53;;;;;;;21.60;15.57;;;11.30;99.90;;;;;;4937303;28;19922;-86
2022/05/20 04:38:20;;;;;;;17.33;14.88;;;11.30;99.90;;;;;;4937028;28;20048;-86
2022/05/20 04:46:56;;;;;;;16.17;14.50;;;11.30;99.90;;;;;;4932159;28;20110;-86
2022/05/20 04:49:08;;;;;;;18.02;16.00;;;11.40;99.90;;;;;;4937375;28;20043;-86
2022/05/20 04:51:36;;;;;;;17.80;14.52;;;11.40;99.90;;;;;;4934267;28;20054;-86
2022/05/20 04:56:50;;;;;;;16.63;13.45;;;11.60;99.90;;;;;;4932967;28;20142;-85
2022/05/20 04:59:18;;;;;;;13.30;12.00;;;11.60;99.90;;;;;;4918444;28;20044;-85
2022/05/20 05:01:45;;;;;;;19.80;13.98;;;11.70;99.90;;;;;;4923844;29;20055;-85
2022/05/20 05:04:12;;;;;;;17.65;15.75;;;11.80;99.90;;;;;;4923467;28;20046;-85
2022/05/20 05:06:39;;;;;;;20.45;16.27;;;11.90;99.90;;;;;;4933494;28;20051;-86
2022/05/20 05:09:06;;;;;;;18.70;16.25;;;11.90;99.90;;;;;;4932823;28;21145;-86
2022/05/20 05:11:33;;;;;;;16.20;14.50;;;11.90;99.90;;;;;;4933054;28;20054;-86
2022/05/20 05:13:59;;;;;;;15.07;13.52;;;12.00;99.90;;;;;;4922148;28;20103;-85
2022/05/20 05:16:26;;;;;;;23.88;18.58;;;12.00;99.90;;;;;;4933370;28;20496;-86
2022/05/20 05:18:54;;;;;;;21.88;17.55;;;12.10;99.90;;;;;;4931733;28;20080;-85
2022/05/20 05:21:21;;;;;;;19.42;17.02;;;12.20;99.90;;;;;;4914117;28;20055;-85
2022/05/20 05:23:48;;;;;;;20.20;17.17;;;12.20;99.90;;;;;;4936257;28;20511;-86
2022/05/20 05:26:15;;;;;;;22.13;17.08;;;12.30;99.90;;;;;;4940847;28;20051;-86
2022/05/20 05:28:42;;;;;;;17.35;15.55;;;12.40;99.90;;;;;;4933718;28;20043;-86
2022/05/20 05:31:09;;;;;;;17.88;15.13;;;12.50;99.90;;;;;;4930220;28;20067;-86
2022/05/20 05:33:36;;;;;;;19.90;16.70;;;12.50;99.90;;;;;;4933726;28;20051;-86
2022/05/20 05:36:03;;;;;;;18.08;16.15;;;12.60;99.90;;;;;;4914148;28;20083;-86
2022/05/20 05:38:31;;;;;;;19.63;15.48;;;12.70;99.90;;;;;;4924135;28;20423;-85
2022/05/20 05:40:58;;;;;;;17.45;15.55;;;12.80;99.90;;;;;;4907804;28;20535;-86
2022/05/20 05:43:26;;;;;;;19.92;15.68;;;12.90;99.90;;;;;;4937558;28;20474;-85
2022/05/20 05:45:53;;;;;;;17.15;15.45;;;12.90;99.90;;;;;;4935390;28;20044;-86
2022/05/20 05:48:20;;;;;;;18.95;15.85;;;13.00;99.90;;;;;;4924496;29;20054;-86
2022/05/20 05:50:47;;;;;;;16.75;15.07;;;13.10;99.90;;;;;;4944242;28;20094;-86
2022/05/20 05:53:20;;;;;;;19.90;15.77;;;13.20;99.90;;;;;;4936480;28;20571;-86
2022/05/20 05:55:49;;;;;;;15.32;13.73;;;13.30;99.90;;;;;;4921909;29;20055;-86
2022/05/20 05:58:16;;;;;;;17.13;14.70;;;13.30;99.90;;;;;;4940540;28;20111;-85
2022/05/20 06:00:43;;;;;;;17.33;15.27;;;13.40;99.90;;;;;;4941696;28;20051;-85
2022/05/20 06:03:11;;;;;;;17.85;15.65;;;13.40;99.90;;;;;;4941220;28;20083;-86
2022/05/20 06:05:38;;;;;;;20.15;15.48;;;13.30;99.90;;;;;;4945808;28;20058;-86
2022/05/20 06:08:05;;;;;;;19.63;15.35;;;13.40;99.90;;;;;;4945216;28;20051;-86
2022/05/20 06:10:33;;;;;;;17.95;13.57;;;13.40;99.90;;;;;;4928039;28;20078;-86
2022/05/20 06:12:59;;;;;;;15.73;12.70;;;13.30;99.90;;;;;;4939850;28;20683;-86
2022/05/20 06:15:28;;;;;;;16.40;13.52;;;13.20;99.90;;;;;;4926953;28;20134;-86
2022/05/20 06:17:56;;;;;;;13.90;11.55;;;13.10;99.90;;;;;;4943697;28;20066;-86
2022/05/20 06:20:25;;;;;;;18.10;12.85;;;13.20;99.90;;;;;;4920113;28;20118;-86
2022/05/20 06:22:52;;;;;;;16.77;12.77;;;13.10;99.90;;;;;;4933844;28;20408;-86
2022/05/20 06:25:19;;;;;;;15.25;12.40;;;13.10;99.90;;;;;;4934728;28;20072;-86
2022/05/20 06:27:46;;;;;;;13.43;12.02;;;13.10;99.90;;;;;;4918742;28;20548;-86
2022/05/20 06:30:17;;;;;;;16.20;12.25;;;13.20;99.90;;;;;;4937979;28;20044;-86
2022/05/20 06:32:45;;;;;;;13.60;12.30;;;13.20;99.90;;;;;;4933890;28;20500;-86
2022/05/20 06:40:46;;;;;;;17.27;12.70;;;13.40;99.90;;;;;;4936572;28;20809;-86
2022/05/20 06:43:23;;;;;;;16.65;11.07;;;13.50;99.90;;;;;;4922640;28;20063;-86
2022/05/20 06:45:52;;;;;;;14.02;12.68;;;13.50;99.90;;;;;;4941126;28;20050;-87
2022/05/20 06:48:46;;;;;;;12.55;11.05;;;13.50;99.90;;;;;;4912886;28;20158;-86
2022/05/20 06:51:19;;;;;;;16.73;11.43;;;13.60;99.90;;;;;;4917180;28;20047;-87
2022/05/20 06:53:47;;;;;;;13.43;10.77;;;13.60;99.90;;;;;;4935953;28;20047;-87
2022/05/20 06:56:15;;;;;;;13.57;12.10;;;13.70;99.90;;;;;;4935258;28;20048;-87
2022/05/20 06:58:43;;;;;;;17.35;11.52;;;13.80;99.90;;;;;;4944456;28;20122;-88
2022/05/20 07:01:10;;;;;;;20.52;11.75;;;13.90;99.90;;;;;;4920888;28;20154;-87
2022/05/20 07:03:38;;;;;;;14.52;11.05;;;14.00;99.90;;;;;;4937176;28;20464;-88
2022/05/20 07:06:07;;;;;;;14.82;10.90;;;14.10;99.90;;;;;;4931901;28;20135;-87
2022/05/20 07:08:35;;;;;;;14.00;9.88;;;14.20;99.90;;;;;;4925848;28;20066;-87
2022/05/20 07:11:05;;;;;;;15.30;13.77;;;14.20;99.90;;;;;;4909564;29;20062;-87
2022/05/20 07:13:39;;;;;;;15.43;12.15;;;14.10;99.90;;;;;;4919897;29;20048;-87
2022/05/20 07:16:06;;;;;;;15.45;13.00;;;13.90;99.90;;;;;;4914430;29;20044;-87
2022/05/20 07:18:34;;;;;;;12.00;10.80;;;13.90;99.90;;;;;;4915066;29;20044;-87
2022/05/20 07:21:02;;;;;;;14.95;8.32;;;13.90;99.90;;;;;;4917811;29;20048;-88
2022/05/20 07:23:31;;;;;;;21.83;7.65;;;13.40;99.90;;;;;;4905335;29;20062;-87
2022/05/20 07:25:59;;;;;;;6.90;6.20;;;12.90;99.90;;;;;;4917645;29;20067;-86
2022/05/20 07:28:28;;;;;;;7.95;6.97;;;12.40;99.90;;;;;;4917118;29;20103;-87
2022/05/20 07:30:55;;;;;;;9.73;5.75;;;12.10;99.90;;;;;;4901133;29;20064;-87
2022/05/20 07:33:22;;;;;;;9.38;7.13;;;11.90;99.90;;;;;;4917739;29;22199;-87
2022/05/20 07:35:49;;;;;;;10.05;7.22;;;11.70;99.90;;;;;;4907399;29;20048;-88
2022/05/20 07:38:19;;;;;;;15.00;7.35;;;11.60;99.90;;;;;;4919544;29;20048;-88
2022/05/20 07:40:47;;;;;;;12.18;6.90;;;11.50;99.90;;;;;;4916257;29;20055;-87
2022/05/20 07:43:14;;;;;;;18.30;8.80;;;11.40;99.90;;;;;;4905004;29;20099;-87
2022/05/20 07:45:41;;;;;;;14.00;9.18;;;11.40;99.90;;;;;;4916764;29;20050;-87
2022/05/20 07:48:10;;;;;;;12.48;7.90;;;11.40;99.90;;;;;;4913584;28;20083;-87
2022/05/20 07:50:43;;;;;;;12.38;8.27;;;11.30;99.90;;;;;;4901912;29;20060;-88
2022/05/20 07:53:29;;;;;;;16.65;8.60;;;11.20;99.90;;;;;;4916731;29;20079;-88
2022/05/20 07:56:13;;;;;;;12.75;9.15;;;11.10;99.90;;;;;;4905570;29;20056;-88
2022/05/20 07:59:09;;;;;;;17.42;9.30;;;11.10;99.90;;;;;;4916855;29;20041;-87
2022/05/20 08:01:39;;;;;;;15.63;10.38;;;11.10;99.90;;;;;;4900529;29;20122;-87
2022/05/20 08:06:59;;;;;;;14.70;10.45;;;11.00;99.90;;;;;;4920645;29;20047;-86
2022/05/20 08:09:26;;;;;;;19.55;11.43;;;11.10;99.90;;;;;;4929268;28;20125;-88
2022/05/20 08:11:54;;;;;;;16.83;11.68;;;11.10;99.90;;;;;;4933782;28;20054;-87
2022/05/20 08:14:21;;;;;;;17.02;10.73;;;11.10;99.90;;;;;;4943837;28;20052;-87
2022/05/20 08:16:48;;;;;;;16.75;9.77;;;11.10;99.90;;;;;;4938920;28;20056;-87
2022/05/20 08:19:15;;;;;;;14.77;9.57;;;11.40;99.90;;;;;;4933881;28;20114;-88
2022/05/20 08:21:42;;;;;;;17.77;10.45;;;11.40;99.90;;;;;;4938323;28;20131;-88
2022/05/20 08:24:09;;;;;;;14.23;10.93;;;11.30;99.90;;;;;;4915903;28;20098;-88
2022/05/20 08:26:37;;;;;;;15.45;9.95;;;11.10;99.90;;;;;;4938963;28;20040;-87
2022/05/20 08:29:04;;;;;;;21.42;9.32;;;11.20;99.90;;;;;;4934766;28;20035;-88
2022/05/20 08:31:37;;;;;;;23.95;11.18;;;11.30;99.90;;;;;;4933528;28;20047;-88
2022/05/20 08:34:04;;;;;;;14.88;9.48;;;11.30;99.90;;;;;;4934002;28;20039;-86
2022/05/20 08:36:32;;;;;;;17.15;8.38;;;11.50;99.90;;;;;;4937023;28;20507;-88
2022/05/20 08:38:59;;;;;;;16.73;8.63;;;11.60;99.90;;;;;;4931061;28;20146;-87
2022/05/20 08:41:31;;;;;;;16.58;8.80;;;11.80;99.90;;;;;;4932033;28;20051;-87
2022/05/20 08:43:59;;;;;;;11.38;8.65;;;11.50;99.90;;;;;;4936068;28;20062;-87
2022/05/20 08:46:26;;;;;;;21.58;10.65;;;11.40;99.90;;;;;;4932185;28;20520;-87
2022/05/20 08:48:56;;;;;;;17.23;9.65;;;11.40;99.90;;;;;;4937232;28;20480;-87
2022/05/20 08:51:28;;;;;;;19.05;9.35;;;11.50;99.90;;;;;;4935252;28;20144;-87
2022/05/20 08:53:55;;;;;;;12.95;8.50;;;11.50;99.90;;;;;;4916641;28;20042;-87
2022/05/20 08:56:24;;;;;;;29.67;13.60;;;11.50;99.90;;;;;;4923268;29;20082;-87
2022/05/20 08:58:58;;;;;;;20.75;9.50;;;11.40;99.90;;;;;;4944006;28;20054;-87
2022/05/20 09:01:28;;;;;;;14.00;9.35;;;11.30;99.90;;;;;;4938618;28;20047;-87
2022/05/20 09:03:56;;;;;;;20.05;9.57;;;11.30;99.90;;;;;;4923136;28;20079;-87
2022/05/20 09:06:24;;;;;;;14.40;9.18;;;11.50;99.90;;;;;;4933025;29;20067;-88
2022/05/20 09:09:21;;;;;;;15.48;8.32;;;11.30;99.90;;;;;;4914333;29;20079;-87
2022/05/20 09:11:55;;;;;;;18.23;9.25;;;11.40;99.90;;;;;;4905781;29;20579;-87
2022/05/20 09:17:18;;;;;;;12.82;8.10;;;11.50;99.90;;;;;;4924435;29;20058;-87
2022/05/20 09:20:07;;;;;;;11.98;7.57;;;11.20;99.90;;;;;;4917512;29;20047;-87
2022/05/20 09:22:37;;;;;;;17.67;7.75;;;11.20;99.90;;;;;;4925071;29;20055;-87
2022/05/20 09:25:22;;;;;;;16.02;9.43;;;11.10;99.90;;;;;;4905483;29;20173;-87
2022/05/20 09:27:51;;;;;;;14.48;7.57;;;11.30;99.90;;;;;;4922934;29;20508;-87
2022/05/20 09:30:23;;;;;;;15.45;8.80;;;11.30;99.90;;;;;;4903926;29;20103;-87
2022/05/20 09:33:22;;;;;;;11.13;8.90;;;11.20;99.90;;;;;;4910824;29;20047;-86
2022/05/20 09:35:57;;;;;;;15.45;9.15;;;11.30;99.90;;;;;;4908549;29;20091;-87
2022/05/20 09:38:35;;;;;;;15.52;7.22;;;11.30;99.90;;;;;;4909243;29;20164;-87
2022/05/20 09:41:20;;;;;;;10.93;7.40;;;11.30;99.90;;;;;;4926076;29;20491;-87
2022/05/20 09:44:00;;;;;;;14.43;8.77;;;11.40;99.90;;;;;;4923092;29;20060;-86
2022/05/20 09:46:33;;;;;;;;;;;11.40;99.90;;;;;;4918833;29;20461;-88
2022/05/20 09:49:36;;;;;;;15.20;7.95;;;11.40;99.90;;;;;;4922268;29;19927;-88
2022/05/20 09:52:20;;;;;;;16.95;7.88;;;11.60;99.90;;;;;;4924268;29;20146;-87
2022/05/20 09:54:57;;;;;;;11.40;9.30;;;11.40;99.90;;;;;;4901150;29;20154;-87
2022/05/20 09:57:29;;;;;;;16.13;7.70;;;11.20;99.90;;;;;;4922550;29;20385;-88
2022/05/20 10:00:01;;;;;;;13.65;7.65;;;11.30;99.90;;;;;;4925688;29;20904;-86
2022/05/20 10:03:01;;;;;;;10.18;8.57;;;11.30;99.90;;;;;;4911407;29;20047;-88
2022/05/20 10:05:37;;;;;;;10.80;8.77;;;11.40;99.90;;;;;;4927616;29;20042;-87
2022/05/20 10:08:11;;;;;;;11.50;8.82;;;11.30;99.90;;;;;;4927128;29;20103;-86
2022/05/20 10:11:01;;;;;;;12.88;8.35;;;11.10;99.90;;;;;;4913261;29;20057;-87
2022/05/20 10:13:36;;;;;;;10.85;7.07;;;11.00;99.90;;;;;;4917656;28;20102;-87
2022/05/20 10:16:22;;;;;;;17.27;8.45;;;11.10;99.90;;;;;;4921523;29;20513;-87
2022/05/20 10:19:04;;;;;;;14.90;9.18;;;11.20;99.90;;;;;;4916576;29;20099;-87
2022/05/20 10:21:56;;;;;;;15.93;8.73;;;11.30;99.90;;;;;;4933147;28;20118;-87
2022/05/20 10:24:38;;;;;;;19.35;8.85;;;11.30;99.90;;;;;;4902412;29;20051;-87
2022/05/20 10:27:33;;;;;;;13.88;9.15;;;11.20;99.90;;;;;;4922862;28;20411;-88
2022/05/20 10:33:07;;;;;;;17.05;10.73;;;11.10;99.90;;;;;;4937597;28;20059;-88
2022/05/20 10:36:02;;;;;;;14.70;9.27;;;11.10;99.90;;;;;;4903930;29;20468;-87
2022/05/20 10:39:05;;;;;;;13.02;9.77;;;11.10;99.90;;;;;;4942375;28;20405;-87
2022/05/20 10:42:41;;;;;;;13.30;10.43;;;11.10;99.90;;;;;;4920260;28;20440;-87
2022/05/20 10:48:35;;;;;;;17.92;11.07;;;11.10;99.90;;;;;;4932867;28;20488;-87
2022/05/20 10:51:11;;;;;;;16.27;10.18;;;11.00;99.90;;;;;;4935713;28;20056;-87
2022/05/20 10:53:44;;;;;;;18.42;10.18;;;10.90;99.90;;;;;;4938317;28;20051;-87
2022/05/20 10:56:30;;;;;;;18.83;11.00;;;10.80;99.90;;;;;;4941523;28;20051;-87
2022/05/20 10:59:27;;;;;;;24.48;12.88;;;10.70;99.90;;;;;;4941202;28;20059;-87
2022/05/20 11:02:36;;;;;;;21.85;13.48;;;10.70;99.90;;;;;;4939292;28;20055;-86
2022/05/20 11:05:28;;;;;;;22.65;12.20;;;10.70;99.90;;;;;;4931731;29;20059;-86
2022/05/20 11:08:09;;;;;;;29.40;14.60;;;10.80;99.90;;;;;;4901328;28;20523;-86
2022/05/20 11:10:44;;;;;;;27.02;14.35;;;10.70;99.90;;;;;;4925828;28;20126;-88
2022/05/20 11:13:40;;;;;;;24.75;12.70;;;10.70;99.90;;;;;;4939113;28;20096;-87
2022/05/20 11:16:22;;;;;;;24.73;13.27;;;10.90;99.90;;;;;;4941644;28;20071;-87
2022/05/20 11:19:23;;;;;;;26.30;13.20;;;10.90;99.90;;;;;;4924632;28;20048;-87
2022/05/20 11:22:15;;;;;;;19.75;13.35;;;10.90;99.90;;;;;;4909344;28;20059;-87
2022/05/20 11:25:13;;;;;;;27.98;13.07;;;11.00;99.90;;;;;;4937913;28;20508;-88
2022/05/20 11:27:52;;;;;;;29.42;14.18;;;11.00;99.90;;;;;;4936175;28;20496;-88
2022/05/20 11:30:34;;;;;;;23.95;11.82;;;11.00;99.90;;;;;;4921483;28;20052;-87
2022/05/20 11:33:33;;;;;;;26.73;12.27;;;11.10;99.90;;;;;;4937159;28;20563;-88
2022/05/20 11:36:38;;;;;;;23.60;10.82;;;11.10;99.90;;;;;;4917307;28;20062;-88
2022/05/20 11:39:20;;;;;;;24.13;11.23;;;10.90;99.90;;;;;;4850236;29;20758;-87
2022/05/20 11:42:14;;;;;;;21.77;10.73;;;10.90;99.90;;;;;;4848324;29;20541;-87
2022/05/20 11:45:10;;;;;;;34.63;12.50;;;10.90;99.90;;;;;;4917799;28;20134;-88
2022/05/20 11:48:04;;;;;;;21.48;8.70;;;10.70;99.90;;;;;;4934867;28;20055;-87
2022/05/20 11:50:49;;;;;;;17.77;11.52;;;10.90;99.90;;;;;;4923608;29;20227;-86
2022/05/20 11:53:42;;;;;;;16.10;11.05;;;10.90;99.90;;;;;;4923815;28;20035;-87
2022/05/20 11:56:18;;;;;;;16.13;7.45;;;11.00;99.90;;;;;;4939428;28;20086;-86
2022/05/20 11:59:09;;;;;;;15.32;7.55;;;11.00;99.90;;;;;;4921235;28;20083;-86
2022/05/20 12:01:37;;;;;;;17.75;9.65;;;11.20;99.90;;;;;;4934497;28;20049;-87
2022/05/20 12:04:07;;;;;;;25.55;9.95;;;11.10;99.90;;;;;;4940082;28;20523;-87
2022/05/20 12:06:45;;;;;;;21.38;9.05;;;11.10;99.90;;;;;;4941148;28;20055;-87
2022/05/20 12:09:43;;;;;;;14.20;8.15;;;11.30;99.90;;;;;;4930831;28;20058;-87
2022/05/20 12:12:20;;;;;;;15.30;8.57;;;11.40;99.90;;;;;;4935529;28;20058;-87
2022/05/20 12:14:58;;;;;;;19.08;7.85;;;11.70;99.90;;;;;;4939287;28;20055;-87
2022/05/20 12:17:36;;;;;;;15.23;8.15;;;11.70;99.90;;;;;;4934716;28;20055;-87
2022/05/20 12:26:21;;;;;;;23.58;7.65;;;11.70;99.90;;;;;;4939074;28;20044;-87
2022/05/20 12:28:48;;;;;;;9.65;7.28;;;11.40;99.90;;;;;;4923052;28;20047;-86
2022/05/20 12:31:38;;;;;;;12.20;6.85;;;11.30;99.90;;;;;;4936949;28;20067;-87
2022/05/20 12:34:29;;;;;;;14.75;7.97;;;11.30;99.90;;;;;;4935579;28;20126;-87
2022/05/20 12:36:56;;;;;;;21.15;7.80;;;11.20;99.90;;;;;;4938785;28;20055;-87
2022/05/20 12:39:47;;;;;;;12.68;7.88;;;11.10;99.90;;;;;;4930698;28;20098;-87
2022/05/20 12:42:40;;;;;;;15.25;7.70;;;11.00;99.90;;;;;;4937247;28;20059;-87
2022/05/20 12:45:12;;;;;;;11.55;8.13;;;11.10;99.90;;;;;;4931128;28;20043;-86
2022/05/20 12:47:41;;;;;;;11.27;7.40;;;11.10;99.90;;;;;;4937627;28;20135;-86
2022/05/20 12:50:14;;;;;;;21.42;8.07;;;11.20;99.90;;;;;;4938974;28;20484;-87
2022/05/20 12:53:00;;;;;;;14.20;7.45;;;11.30;99.90;;;;;;4925631;28;20047;-88
2022/05/20 12:55:43;;;;;;;11.90;7.07;;;11.30;99.90;;;;;;4929928;28;20823;-87
2022/05/20 12:58:15;;;;;;;15.73;7.95;;;11.20;99.90;;;;;;4917476;28;20555;-87
2022/05/20 13:00:46;;;;;;;21.02;8.43;;;11.30;99.90;;;;;;4932125;28;20142;-88
2022/05/20 13:03:35;;;;;;;21.48;8.05;;;11.20;99.90;;;;;;4922348;28;20055;-86
2022/05/20 13:06:02;;;;;;;16.95;9.25;;;11.00;99.90;;;;;;4938565;28;21754;-87
2022/05/20 13:09:03;;;;;;;23.52;11.38;;;11.20;99.90;;;;;;4931975;28;20055;-87
2022/05/20 13:11:43;;;;;;;;;;;11.00;99.90;;;;;;4924742;28;20061;-87
2022/05/20 13:14:14;;;;;;;17.63;8.70;;;11.30;99.90;;;;;;4936751;28;19974;-87
2022/05/20 13:16:46;;;;;;;15.57;9.27;;;11.40;99.90;;;;;;4924663;28;20228;-87
2022/05/20 13:19:16;;;;;;;20.77;9.02;;;11.40;99.90;;;;;;4936776;28;20048;-88
2022/05/20 13:21:53;;;;;;;24.30;12.23;;;11.30;99.90;;;;;;4935083;28;20051;-87
2022/05/20 13:24:26;;;;;;;21.83;9.65;;;11.40;99.90;;;;;;4917049;28;20052;-87
2022/05/20 13:27:14;;;;;;;26.73;11.73;;;11.50;99.90;;;;;;4922246;29;20457;-87
2022/05/20 13:29:43;;;;;;;21.38;9.35;;;11.30;99.90;;;;;;4934809;28;20043;-86
2022/05/20 13:32:20;;;;;;;15.00;9.90;;;11.10;99.90;;;;;;4924016;28;20142;-86
2022/05/20 13:34:52;;;;;;;15.73;9.85;;;11.10;99.90;;;;;;4936665;28;20437;-88
2022/05/20 13:37:30;;;;;;;22.20;11.10;;;11.10;99.90;;;;;;4930645;28;20039;-86
2022/05/20 13:40:06;;;;;;;12.82;7.85;;;11.10;99.90;;;;;;4918648;29;20071;-88
2022/05/20 13:42:34;;;;;;;14.55;9.02;;;11.10;99.90;;;;;;4934738;28;20043;-89
2022/05/20 13:45:11;;;;;;;17.75;9.85;;;10.90;99.90;;;;;;4932414;28;20365;-89
2022/05/20 13:50:25;;;;;;;18.27;9.07;;;10.90;99.90;;;;;;4932461;28;20285;-89
2022/05/20 13:52:55;;;;;;;19.98;9.98;;;10.70;99.90;;;;;;4921613;29;20055;-88